DABT

Batna Airport

Batna, Algeria
METAR DABT 241100Z 27005KT 9999 FEW026 26/10 Q1025
Observed Flight Rules
Sep-24 @ 11:00 UTC (an hour ago) Visual Flight Rules
Wind Visibility Clouds
270° at 5 knots 10,000+ meters
  • Few at 2,600' AGL
Temperatures Readings
Current 26°C / 79°F
Dewpoint 10°C / 50°F
Humidity 37%
Altimeter 30.27" Hg
Pressure 1025 hPa
Elevation 823
METAR DABT 241100Z 27005KT 9999 FEW026 26/10 Q1025
Observed Flight Rules
Sep-24 @ 11:00 UTC
(an hour ago)
VFR
Wind Visibility
270° at 5 knots 10,000+ meters
Clouds
  • Few at 2,600' AGL
Temperature Dewpoint
26°C / 79°F 10°C / 50°F
Humidity Altimeter Pressure
37% 30.27" Hg 1025 hPa